sensor_id;sensor_type;location;lat;lon;timestamp;pressure;altitude;pressure_sealevel;temperature;humidity
74960;BME280;63518;49.572;1.106;2022-12-29T00:09:29;98320.16;;;13.25;73.24
74960;BME280;63518;49.572;1.106;2022-12-29T00:12:50;98320.97;;;13.25;72.84
74960;BME280;63518;49.572;1.106;2022-12-29T00:15:54;98333.59;;;13.18;72.75
74960;BME280;63518;49.572;1.106;2022-12-29T00:19:04;98331.84;;;13.22;72.89
74960;BME280;63518;49.572;1.106;2022-12-29T00:22:26;98341.88;;;13.26;73.06
74960;BME280;63518;49.572;1.106;2022-12-29T00:26:02;98334.91;;;13.20;73.10
74960;BME280;63518;49.572;1.106;2022-12-29T00:28:51;98318.00;;;13.13;73.16
74960;BME280;63518;49.572;1.106;2022-12-29T00:39:23;98330.50;;;13.11;73.05
74960;BME280;63518;49.572;1.106;2022-12-29T00:42:43;98337.50;;;13.17;72.02
74960;BME280;63518;49.572;1.106;2022-12-29T00:45:52;98349.00;;;13.19;72.35
74960;BME280;63518;49.572;1.106;2022-12-29T00:48:31;98340.22;;;13.08;73.13
74960;BME280;63518;49.572;1.106;2022-12-29T00:51:26;98331.78;;;13.13;73.37
74960;BME280;63518;49.572;1.106;2022-12-29T00:57:56;98336.34;;;13.18;72.54
74960;BME280;63518;49.572;1.106;2022-12-29T01:01:09;98333.94;;;13.16;72.65
74960;BME280;63518;49.572;1.106;2022-12-29T01:04:02;98343.16;;;13.20;72.34
74960;BME280;63518;49.572;1.106;2022-12-29T01:07:07;98340.06;;;13.13;72.75
74960;BME280;63518;49.572;1.106;2022-12-29T01:10:06;98340.56;;;13.06;72.40
74960;BME280;63518;49.572;1.106;2022-12-29T01:13:06;98345.91;;;13.12;73.65
74960;BME280;63518;49.572;1.106;2022-12-29T01:16:07;98324.81;;;13.07;72.78
74960;BME280;63518;49.572;1.106;2022-12-29T01:18:45;98343.16;;;13.12;72.49
74960;BME280;63518;49.572;1.106;2022-12-29T01:21:17;98343.16;;;13.12;72.87
74960;BME280;63518;49.572;1.106;2022-12-29T01:23:57;98340.06;;;13.13;72.35
74960;BME280;63518;49.572;1.106;2022-12-29T01:30:02;98331.47;;;13.06;72.19
74960;BME280;63518;49.572;1.106;2022-12-29T01:33:10;98339.09;;;13.09;72.41
74960;BME280;63518;49.572;1.106;2022-12-29T01:35:58;98332.59;;;13.05;72.00
74960;BME280;63518;49.572;1.106;2022-12-29T01:38:51;98334.53;;;13.04;72.79
74960;BME280;63518;49.572;1.106;2022-12-29T01:41:35;98332.09;;;13.03;72.00
74960;BME280;63518;49.572;1.106;2022-12-29T01:45:10;98348.97;;;13.01;71.79
74960;BME280;63518;49.572;1.106;2022-12-29T01:48:10;98337.25;;;12.96;72.12
74960;BME280;63518;49.572;1.106;2022-12-29T01:51:12;98347.66;;;12.90;71.70
74960;BME280;63518;49.572;1.106;2022-12-29T01:57:48;98361.59;;;12.94;71.46
74960;BME280;63518;49.572;1.106;2022-12-29T02:00:25;98356.22;;;12.89;71.29
74960;BME280;63518;49.572;1.106;2022-12-29T02:07:45;98358.81;;;12.85;70.48
74960;BME280;63518;49.572;1.106;2022-12-29T02:10:14;98342.56;;;12.75;70.32
74960;BME280;63518;49.572;1.106;2022-12-29T02:12:54;98343.84;;;12.77;70.69
74960;BME280;63518;49.572;1.106;2022-12-29T02:23:03;98353.22;;;12.68;70.72
74960;BME280;63518;49.572;1.106;2022-12-29T02:37:03;98347.31;;;12.52;70.50
74960;BME280;63518;49.572;1.106;2022-12-29T02:40:23;98363.19;;;12.55;71.13
74960;BME280;63518;49.572;1.106;2022-12-29T02:43:12;98363.69;;;12.57;70.92
74960;BME280;63518;49.572;1.106;2022-12-29T02:53:11;98350.31;;;12.42;70.53
74960;BME280;63518;49.572;1.106;2022-12-29T02:55:49;98343.38;;;12.44;70.43
74960;BME280;63518;49.572;1.106;2022-12-29T02:58:22;98337.69;;;12.41;71.12
74960;BME280;63518;49.572;1.106;2022-12-29T03:15:09;98342.69;;;12.39;69.82
74960;BME280;63518;49.572;1.106;2022-12-29T03:18:34;98354.34;;;12.36;70.83
74960;BME280;63518;49.572;1.106;2022-12-29T03:22:06;98352.22;;;12.33;70.53
74960;BME280;63518;49.572;1.106;2022-12-29T03:28:36;98350.59;;;12.32;69.84
74960;BME280;63518;49.572;1.106;2022-12-29T03:31:25;98348.44;;;12.29;70.77
74960;BME280;63518;49.572;1.106;2022-12-29T03:34:45;98354.19;;;12.41;70.63
74960;BME280;63518;49.572;1.106;2022-12-29T03:38:09;98360.03;;;12.39;70.55
74960;BME280;63518;49.572;1.106;2022-12-29T03:40:59;98366.19;;;12.36;70.71
74960;BME280;63518;49.572;1.106;2022-12-29T03:43:54;98359.34;;;12.34;70.29
74960;BME280;63518;49.572;1.106;2022-12-29T03:46:49;98355.28;;;12.31;70.54
74960;BME280;63518;49.572;1.106;2022-12-29T03:50:06;98345.91;;;12.32;71.33
74960;BME280;63518;49.572;1.106;2022-12-29T03:52:48;98358.34;;;12.30;70.19
74960;BME280;63518;49.572;1.106;2022-12-29T03:55:51;98361.81;;;12.35;71.09
74960;BME280;63518;49.572;1.106;2022-12-29T04:02:50;98385.06;;;12.29;71.06
74960;BME280;63518;49.572;1.106;2022-12-29T04:05:59;98384.34;;;12.37;69.55
74960;BME280;63518;49.572;1.106;2022-12-29T04:09:00;98374.56;;;12.31;70.49
74960;BME280;63518;49.572;1.106;2022-12-29T04:12:05;98379.31;;;12.39;69.76
74960;BME280;63518;49.572;1.106;2022-12-29T04:14:52;98379.44;;;12.34;70.07
74960;BME280;63518;49.572;1.106;2022-12-29T04:18:06;98378.34;;;12.35;70.42
74960;BME280;63518;49.572;1.106;2022-12-29T04:20:44;98389.69;;;12.42;69.66
74960;BME280;63518;49.572;1.106;2022-12-29T04:23:37;98396.84;;;12.43;69.62
74960;BME280;63518;49.572;1.106;2022-12-29T04:26:12;98391.78;;;12.37;70.35
74960;BME280;63518;49.572;1.106;2022-12-29T04:28:50;98380.25;;;12.35;69.58
74960;BME280;63518;49.572;1.106;2022-12-29T04:35:36;98393.09;;;12.39;69.81
74960;BME280;63518;49.572;1.106;2022-12-29T04:38:30;98385.13;;;12.38;68.93
74960;BME280;63518;49.572;1.106;2022-12-29T04:41:13;98413.81;;;12.37;69.64
74960;BME280;63518;49.572;1.106;2022-12-29T04:44:22;98405.56;;;12.37;68.86
74960;BME280;63518;49.572;1.106;2022-12-29T04:47:45;98388.81;;;12.33;68.12
74960;BME280;63518;49.572;1.106;2022-12-29T04:50:32;98399.53;;;12.35;68.49
74960;BME280;63518;49.572;1.106;2022-12-29T04:53:27;98392.59;;;12.37;68.69
74960;BME280;63518;49.572;1.106;2022-12-29T04:56:20;98419.00;;;12.38;68.88
74960;BME280;63518;49.572;1.106;2022-12-29T05:03:22;98403.53;;;12.29;68.69
74960;BME280;63518;49.572;1.106;2022-12-29T05:06:36;98409.25;;;12.18;68.14
74960;BME280;63518;49.572;1.106;2022-12-29T05:09:41;98405.09;;;12.21;67.96
74960;BME280;63518;49.572;1.106;2022-12-29T05:12:51;98407.97;;;12.16;68.11
74960;BME280;63518;49.572;1.106;2022-12-29T05:16:01;98406.28;;;12.06;68.17
74960;BME280;63518;49.572;1.106;2022-12-29T05:19:18;98419.28;;;12.14;67.99
74960;BME280;63518;49.572;1.106;2022-12-29T05:22:28;98412.75;;;12.10;69.72
74960;BME280;63518;49.572;1.106;2022-12-29T05:25:42;98433.97;;;12.10;67.51
74960;BME280;63518;49.572;1.106;2022-12-29T05:35:34;98435.84;;;12.01;67.88
74960;BME280;63518;49.572;1.106;2022-12-29T05:38:08;98441.03;;;12.02;69.30
74960;BME280;63518;49.572;1.106;2022-12-29T05:41:12;98448.81;;;12.00;68.32
74960;BME280;63518;49.572;1.106;2022-12-29T05:44:02;98463.78;;;11.94;69.14
74960;BME280;63518;49.572;1.106;2022-12-29T05:47:09;98464.69;;;12.03;67.86
74960;BME280;63518;49.572;1.106;2022-12-29T05:50:07;98465.72;;;12.07;68.12
74960;BME280;63518;49.572;1.106;2022-12-29T05:53:10;98476.81;;;12.02;67.53
74960;BME280;63518;49.572;1.106;2022-12-29T05:55:53;98475.69;;;12.03;67.66
74960;BME280;63518;49.572;1.106;2022-12-29T05:58:46;98474.59;;;12.04;69.23
74960;BME280;63518;49.572;1.106;2022-12-29T06:05:56;98499.47;;;11.99;66.98
74960;BME280;63518;49.572;1.106;2022-12-29T06:13:00;98515.09;;;11.90;67.62
74960;BME280;63518;49.572;1.106;2022-12-29T06:15:48;98517.31;;;12.02;68.83
74960;BME280;63518;49.572;1.106;2022-12-29T06:18:56;98505.91;;;11.94;66.84
74960;BME280;63518;49.572;1.106;2022-12-29T06:22:09;98511.41;;;11.94;66.94
74960;BME280;63518;49.572;1.106;2022-12-29T06:25:36;98520.19;;;11.96;67.30
74960;BME280;63518;49.572;1.106;2022-12-29T06:28:32;98534.03;;;11.91;66.64
74960;BME280;63518;49.572;1.106;2022-12-29T06:31:41;98531.59;;;11.90;66.76
74960;BME280;63518;49.572;1.106;2022-12-29T06:38:41;98542.22;;;11.83;67.10
74960;BME280;63518;49.572;1.106;2022-12-29T06:41:58;98549.53;;;11.87;66.96
74960;BME280;63518;49.572;1.106;2022-12-29T06:48:12;98553.22;;;11.83;67.88
74960;BME280;63518;49.572;1.106;2022-12-29T06:50:45;98550.66;;;11.86;66.05
74960;BME280;63518;49.572;1.106;2022-12-29T06:57:56;98574.63;;;11.86;67.89
74960;BME280;63518;49.572;1.106;2022-12-29T07:00:50;98560.03;;;11.85;67.83
74960;BME280;63518;49.572;1.106;2022-12-29T07:03:47;98556.38;;;11.90;68.51
74960;BME280;63518;49.572;1.106;2022-12-29T07:06:30;98561.97;;;11.85;66.74
74960;BME280;63518;49.572;1.106;2022-12-29T07:17:00;98595.22;;;11.88;67.33
74960;BME280;63518;49.572;1.106;2022-12-29T07:20:44;98596.84;;;11.89;67.28
74960;BME280;63518;49.572;1.106;2022-12-29T07:23:33;98592.16;;;11.90;67.35
74960;BME280;63518;49.572;1.106;2022-12-29T07:26:34;98598.25;;;11.87;67.25
74960;BME280;63518;49.572;1.106;2022-12-29T07:33:30;98608.66;;;11.90;68.31
74960;BME280;63518;49.572;1.106;2022-12-29T07:37:17;98606.00;;;11.85;67.00
74960;BME280;63518;49.572;1.106;2022-12-29T07:40:34;98628.97;;;11.80;68.05
74960;BME280;63518;49.572;1.106;2022-12-29T07:43:19;98639.84;;;11.85;67.93
74960;BME280;63518;49.572;1.106;2022-12-29T07:46:37;98621.72;;;11.84;68.30
74960;BME280;63518;49.572;1.106;2022-12-29T07:53:48;98629.97;;;11.84;67.08
74960;BME280;63518;49.572;1.106;2022-12-29T07:57:27;98629.66;;;11.86;67.15
74960;BME280;63518;49.572;1.106;2022-12-29T08:00:39;98636.41;;;11.80;67.55
74960;BME280;63518;49.572;1.106;2022-12-29T08:03:34;98651.97;;;11.84;66.66
74960;BME280;63518;49.572;1.106;2022-12-29T08:06:32;98640.66;;;11.86;67.58
74960;BME280;63518;49.572;1.106;2022-12-29T08:12:55;98654.00;;;11.79;66.45
74960;BME280;63518;49.572;1.106;2022-12-29T08:16:26;98656.06;;;11.73;66.58
74960;BME280;63518;49.572;1.106;2022-12-29T08:22:37;98654.94;;;11.74;68.26
74960;BME280;63518;49.572;1.106;2022-12-29T08:25:41;98662.47;;;11.82;67.86
74960;BME280;63518;49.572;1.106;2022-12-29T08:28:44;98666.13;;;11.78;68.55
74960;BME280;63518;49.572;1.106;2022-12-29T08:32:04;98680.19;;;11.76;66.76
74960;BME280;63518;49.572;1.106;2022-12-29T08:35:20;98684.88;;;11.76;67.10
74960;BME280;63518;49.572;1.106;2022-12-29T08:38:18;98675.91;;;11.70;68.54
74960;BME280;63518;49.572;1.106;2022-12-29T08:41:31;98679.47;;;11.71;66.83
74960;BME280;63518;49.572;1.106;2022-12-29T08:44:37;98695.28;;;11.79;68.23
74960;BME280;63518;49.572;1.106;2022-12-29T08:47:40;98689.88;;;11.74;66.51
74960;BME280;63518;49.572;1.106;2022-12-29T08:50:59;98706.72;;;11.72;67.94
74960;BME280;63518;49.572;1.106;2022-12-29T08:58:29;98711.38;;;11.72;68.28
74960;BME280;63518;49.572;1.106;2022-12-29T09:02:04;98725.75;;;11.68;66.91
74960;BME280;63518;49.572;1.106;2022-12-29T09:08:54;98740.09;;;11.65;66.99
74960;BME280;63518;49.572;1.106;2022-12-29T09:15:06;98766.19;;;11.68;66.65
74960;BME280;63518;49.572;1.106;2022-12-29T09:18:33;98750.50;;;11.68;68.56
74960;BME280;63518;49.572;1.106;2022-12-29T09:21:16;98760.31;;;11.75;68.80
74960;BME280;63518;49.572;1.106;2022-12-29T09:25:22;98760.06;;;11.71;66.72
74960;BME280;63518;49.572;1.106;2022-12-29T09:27:56;98763.13;;;11.69;67.58
74960;BME280;63518;49.572;1.106;2022-12-29T09:30:37;98763.25;;;11.64;67.26
74960;BME280;63518;49.572;1.106;2022-12-29T09:37:04;98774.28;;;11.78;67.16
74960;BME280;63518;49.572;1.106;2022-12-29T09:40:36;98765.19;;;11.78;68.61
74960;BME280;63518;49.572;1.106;2022-12-29T09:47:46;98773.75;;;11.76;68.12
74960;BME280;63518;49.572;1.106;2022-12-29T09:50:50;98788.03;;;11.78;67.56
74960;BME280;63518;49.572;1.106;2022-12-29T09:57:49;98793.25;;;11.80;67.12
74960;BME280;63518;49.572;1.106;2022-12-29T10:01:13;98793.97;;;11.85;67.30
74960;BME280;63518;49.572;1.106;2022-12-29T10:04:21;98797.75;;;11.89;67.38
74960;BME280;63518;49.572;1.106;2022-12-29T10:10:59;98804.91;;;11.90;66.81
74960;BME280;63518;49.572;1.106;2022-12-29T10:14:10;98806.16;;;11.98;67.30
74960;BME280;63518;49.572;1.106;2022-12-29T10:17:24;98818.09;;;12.07;66.66
74960;BME280;63518;49.572;1.106;2022-12-29T10:32:56;98815.69;;;12.19;66.70
74960;BME280;63518;49.572;1.106;2022-12-29T10:36:09;98796.81;;;12.27;67.64
74960;BME280;63518;49.572;1.106;2022-12-29T10:39:40;98811.81;;;12.20;66.96
74960;BME280;63518;49.572;1.106;2022-12-29T10:42:56;98815.28;;;12.26;65.86
74960;BME280;63518;49.572;1.106;2022-12-29T10:54:01;98816.56;;;12.47;66.25
74960;BME280;63518;49.572;1.106;2022-12-29T11:01:08;98811.25;;;12.37;66.79
74960;BME280;63518;49.572;1.106;2022-12-29T11:08:38;98816.44;;;12.39;67.01
74960;BME280;63518;49.572;1.106;2022-12-29T11:12:25;98824.53;;;12.49;65.56
74960;BME280;63518;49.572;1.106;2022-12-29T11:15:46;98829.91;;;12.40;66.41
74960;BME280;63518;49.572;1.106;2022-12-29T11:18:43;98828.09;;;12.49;65.87
74960;BME280;63518;49.572;1.106;2022-12-29T11:22:20;98832.38;;;12.56;65.75
74960;BME280;63518;49.572;1.106;2022-12-29T11:28:46;98849.03;;;12.78;65.79
74960;BME280;63518;49.572;1.106;2022-12-29T11:32:30;98834.13;;;12.79;66.12
74960;BME280;63518;49.572;1.106;2022-12-29T11:35:42;98840.25;;;13.03;65.15
74960;BME280;63518;49.572;1.106;2022-12-29T12:16:22;98830.31;;;11.50;63.20
74960;BME280;63518;49.572;1.106;2022-12-29T12:19:04;98833.66;;;11.28;64.25
74960;BME280;63518;49.572;1.106;2022-12-29T12:21:47;98808.03;;;11.32;65.61
74960;BME280;63518;49.572;1.106;2022-12-29T12:27:15;98818.03;;;11.23;65.48
74960;BME280;63518;49.572;1.106;2022-12-29T12:35:51;98826.97;;;11.34;63.83
74960;BME280;63518;49.572;1.106;2022-12-29T12:44:29;98820.94;;;11.51;62.96
74960;BME280;63518;49.572;1.106;2022-12-29T12:47:23;98825.31;;;11.52;65.96
74960;BME280;63518;49.572;1.106;2022-12-29T12:53:14;98789.31;;;10.92;65.04
74960;BME280;63518;49.572;1.106;2022-12-29T12:59:22;98821.13;;;10.98;65.83
74960;BME280;63518;49.572;1.106;2022-12-29T13:10:22;98838.63;;;11.45;62.14
74960;BME280;63518;49.572;1.106;2022-12-29T13:18:30;98844.44;;;11.43;63.18
74960;BME280;63518;49.572;1.106;2022-12-29T13:27:45;98846.38;;;11.43;63.90
74960;BME280;63518;49.572;1.106;2022-12-29T13:30:36;98831.97;;;10.89;59.28
74960;BME280;63518;49.572;1.106;2022-12-29T13:36:24;98838.34;;;11.46;64.62
74960;BME280;63518;49.572;1.106;2022-12-29T13:39:27;98830.66;;;11.24;61.87
74960;BME280;63518;49.572;1.106;2022-12-29T13:41:56;98848.84;;;11.01;65.41
74960;BME280;63518;49.572;1.106;2022-12-29T13:44:48;98839.03;;;10.95;65.41
74960;BME280;63518;49.572;1.106;2022-12-29T13:49:57;98839.81;;;11.20;65.26
74960;BME280;63518;49.572;1.106;2022-12-29T13:52:43;98854.16;;;11.17;59.76
74960;BME280;63518;49.572;1.106;2022-12-29T13:58:31;98853.03;;;11.18;61.53
74960;BME280;63518;49.572;1.106;2022-12-29T14:06:27;98848.78;;;11.06;64.23
74960;BME280;63518;49.572;1.106;2022-12-29T14:12:18;98848.38;;;11.18;62.16
74960;BME280;63518;49.572;1.106;2022-12-29T14:14:50;98853.97;;;11.08;63.65
74960;BME280;63518;49.572;1.106;2022-12-29T14:17:20;98865.69;;;10.71;64.65
74960;BME280;63518;49.572;1.106;2022-12-29T14:19:52;98868.66;;;10.98;60.88
74960;BME280;63518;49.572;1.106;2022-12-29T14:22:25;98866.69;;;10.80;62.66
74960;BME280;63518;49.572;1.106;2022-12-29T14:24:59;98876.22;;;10.58;60.72
74960;BME280;63518;49.572;1.106;2022-12-29T14:29:54;98847.63;;;10.89;62.42
74960;BME280;63518;49.572;1.106;2022-12-29T14:34:53;98892.84;;;10.77;62.39
74960;BME280;63518;49.572;1.106;2022-12-29T14:37:30;98893.28;;;10.84;61.63
74960;BME280;63518;49.572;1.106;2022-12-29T14:40:19;98895.81;;;11.05;61.08
74960;BME280;63518;49.572;1.106;2022-12-29T14:42:51;98894.78;;;10.77;65.52
74960;BME280;63518;49.572;1.106;2022-12-29T14:45:28;98888.66;;;10.51;64.08
74960;BME280;63518;49.572;1.106;2022-12-29T14:47:56;98864.09;;;10.65;62.56
74960;BME280;63518;49.572;1.106;2022-12-29T14:50:40;98890.16;;;10.67;63.65
74960;BME280;63518;49.572;1.106;2022-12-29T14:53:48;98897.22;;;10.49;63.05
74960;BME280;63518;49.572;1.106;2022-12-29T14:56:25;98884.09;;;10.70;59.84
74960;BME280;63518;49.572;1.106;2022-12-29T14:59:01;98909.78;;;10.55;62.19
74960;BME280;63518;49.572;1.106;2022-12-29T15:01:44;98900.25;;;10.48;62.38
74960;BME280;63518;49.572;1.106;2022-12-29T15:04:15;98882.94;;;10.47;64.08
74960;BME280;63518;49.572;1.106;2022-12-29T15:06:44;98894.97;;;10.51;62.05
74960;BME280;63518;49.572;1.106;2022-12-29T15:09:36;98891.19;;;10.47;63.99
74960;BME280;63518;49.572;1.106;2022-12-29T15:14:55;98900.53;;;10.46;65.56
74960;BME280;63518;49.572;1.106;2022-12-29T15:17:26;98918.72;;;10.37;64.46
74960;BME280;63518;49.572;1.106;2022-12-29T15:20:35;98911.81;;;10.69;64.38
74960;BME280;63518;49.572;1.106;2022-12-29T15:23:10;98895.22;;;10.26;65.65
74960;BME280;63518;49.572;1.106;2022-12-29T15:25:57;98900.63;;;10.07;67.21
74960;BME280;63518;49.572;1.106;2022-12-29T15:28:26;98902.97;;;10.19;65.66
74960;BME280;63518;49.572;1.106;2022-12-29T15:31:02;98891.38;;;9.98;68.49
74960;BME280;63518;49.572;1.106;2022-12-29T15:33:30;98925.50;;;10.16;65.57
74960;BME280;63518;49.572;1.106;2022-12-29T15:36:03;98926.56;;;10.20;66.62
74960;BME280;63518;49.572;1.106;2022-12-29T15:38:33;98949.94;;;10.17;66.35
74960;BME280;63518;49.572;1.106;2022-12-29T15:41:18;98942.91;;;10.01;65.00
74960;BME280;63518;49.572;1.106;2022-12-29T15:44:15;98953.69;;;9.92;66.33
74960;BME280;63518;49.572;1.106;2022-12-29T15:46:44;98948.22;;;9.87;66.91
74960;BME280;63518;49.572;1.106;2022-12-29T15:49:13;98945.44;;;9.92;65.82
74960;BME280;63518;49.572;1.106;2022-12-29T15:51:41;98939.28;;;10.06;64.10
74960;BME280;63518;49.572;1.106;2022-12-29T15:54:17;98939.28;;;10.06;66.50
74960;BME280;63518;49.572;1.106;2022-12-29T15:56:46;98951.88;;;10.12;64.59
74960;BME280;63518;49.572;1.106;2022-12-29T15:59:28;98927.41;;;9.81;67.34
74960;BME280;63518;49.572;1.106;2022-12-29T16:01:57;98945.94;;;9.99;65.49
74960;BME280;63518;49.572;1.106;2022-12-29T16:04:30;98955.63;;;9.87;68.42
74960;BME280;63518;49.572;1.106;2022-12-29T16:07:29;98950.53;;;9.70;68.59
74960;BME280;63518;49.572;1.106;2022-12-29T16:10:36;98950.75;;;9.79;67.40
74960;BME280;63518;49.572;1.106;2022-12-29T16:13:16;98917.75;;;9.44;68.67
74960;BME280;63518;49.572;1.106;2022-12-29T16:15:47;98948.97;;;9.54;68.30
74960;BME280;63518;49.572;1.106;2022-12-29T16:18:29;98956.91;;;9.50;66.02
74960;BME280;63518;49.572;1.106;2022-12-29T16:20:57;98961.94;;;9.33;70.43
74960;BME280;63518;49.572;1.106;2022-12-29T16:23:27;98956.50;;;9.23;70.61
74960;BME280;63518;49.572;1.106;2022-12-29T16:25:57;98967.97;;;9.35;66.27
74960;BME280;63518;49.572;1.106;2022-12-29T16:28:36;98956.03;;;9.00;71.03
74960;BME280;63518;49.572;1.106;2022-12-29T16:33:52;98971.84;;;9.29;70.58
74960;BME280;63518;49.572;1.106;2022-12-29T16:39:35;98961.66;;;9.34;69.94
74960;BME280;63518;49.572;1.106;2022-12-29T16:42:35;98980.53;;;9.41;71.54
74960;BME280;63518;49.572;1.106;2022-12-29T16:48:15;98986.38;;;9.24;70.49
74960;BME280;63518;49.572;1.106;2022-12-29T16:50:45;98987.41;;;9.38;70.40
74960;BME280;63518;49.572;1.106;2022-12-29T16:53:27;98996.50;;;9.24;70.64
74960;BME280;63518;49.572;1.106;2022-12-29T16:56:13;99000.84;;;9.40;69.24
74960;BME280;63518;49.572;1.106;2022-12-29T16:58:46;98967.56;;;8.87;70.36
74960;BME280;63518;49.572;1.106;2022-12-29T17:01:17;99013.56;;;9.05;71.96
74960;BME280;63518;49.572;1.106;2022-12-29T17:03:53;99012.22;;;8.98;69.55
74960;BME280;63518;49.572;1.106;2022-12-29T17:06:24;99012.75;;;9.05;70.04
74960;BME280;63518;49.572;1.106;2022-12-29T17:13:09;99003.16;;;8.92;70.72
74960;BME280;63518;49.572;1.106;2022-12-29T17:16:11;99022.88;;;8.99;70.67
74960;BME280;63518;49.572;1.106;2022-12-29T17:19:03;99030.56;;;8.87;70.49
74960;BME280;63518;49.572;1.106;2022-12-29T17:21:35;99023.16;;;8.98;70.58
74960;BME280;63518;49.572;1.106;2022-12-29T17:24:16;99014.66;;;8.69;70.57
74960;BME280;63518;49.572;1.106;2022-12-29T17:26:48;99038.22;;;8.80;72.91
74960;BME280;63518;49.572;1.106;2022-12-29T17:29:34;99036.31;;;9.01;71.57
74960;BME280;63518;49.572;1.106;2022-12-29T17:32:12;99020.41;;;8.82;72.26
74960;BME280;63518;49.572;1.106;2022-12-29T17:34:40;99041.22;;;9.19;69.96
74960;BME280;63518;49.572;1.106;2022-12-29T17:37:51;99045.63;;;8.95;71.79
74960;BME280;63518;49.572;1.106;2022-12-29T17:40:29;99042.91;;;8.89;73.23
74960;BME280;63518;49.572;1.106;2022-12-29T17:43:13;99043.44;;;8.86;69.56
74960;BME280;63518;49.572;1.106;2022-12-29T17:45:52;99046.72;;;8.68;71.81
74960;BME280;63518;49.572;1.106;2022-12-29T17:48:25;99053.00;;;8.63;72.04
74960;BME280;63518;49.572;1.106;2022-12-29T17:50:53;99030.81;;;8.45;73.03
74960;BME280;63518;49.572;1.106;2022-12-29T17:53:28;99038.78;;;8.56;71.60
74960;BME280;63518;49.572;1.106;2022-12-29T17:55:58;99051.91;;;8.49;71.84
74960;BME280;63518;49.572;1.106;2022-12-29T17:58:52;99045.06;;;8.37;73.37
74960;BME280;63518;49.572;1.106;2022-12-29T18:01:32;99054.34;;;8.25;72.88
74960;BME280;63518;49.572;1.106;2022-12-29T18:04:18;99056.00;;;8.31;75.21
74960;BME280;63518;49.572;1.106;2022-12-29T18:07:12;99050.78;;;8.30;74.07
74960;BME280;63518;49.572;1.106;2022-12-29T18:10:17;99049.16;;;8.34;72.86
74960;BME280;63518;49.572;1.106;2022-12-29T18:12:48;99071.06;;;8.39;73.96
74960;BME280;63518;49.572;1.106;2022-12-29T18:15:27;99064.22;;;8.47;73.20
74960;BME280;63518;49.572;1.106;2022-12-29T18:18:09;99084.75;;;8.34;75.01
74960;BME280;63518;49.572;1.106;2022-12-29T18:20:52;99051.88;;;8.24;72.63
74960;BME280;63518;49.572;1.106;2022-12-29T18:23:24;99086.34;;;8.20;74.15
74960;BME280;63518;49.572;1.106;2022-12-29T18:25:55;99080.84;;;8.15;75.05
74960;BME280;63518;49.572;1.106;2022-12-29T18:28:30;99063.56;;;7.89;75.71
74960;BME280;63518;49.572;1.106;2022-12-29T18:31:05;99077.28;;;8.04;75.21
74960;BME280;63518;49.572;1.106;2022-12-29T18:33:48;99092.13;;;8.33;72.83
74960;BME280;63518;49.572;1.106;2022-12-29T18:36:19;99091.03;;;8.24;73.35
74960;BME280;63518;49.572;1.106;2022-12-29T18:38:48;99093.41;;;8.05;73.74
74960;BME280;63518;49.572;1.106;2022-12-29T18:41:25;99109.06;;;8.30;73.59
74960;BME280;63518;49.572;1.106;2022-12-29T18:43:57;99098.09;;;8.10;73.61
74960;BME280;63518;49.572;1.106;2022-12-29T18:46:24;99094.25;;;8.06;74.44
74960;BME280;63518;49.572;1.106;2022-12-29T18:48:55;99095.06;;;8.06;73.51
74960;BME280;63518;49.572;1.106;2022-12-29T18:51:25;99111.47;;;8.01;75.06
74960;BME280;63518;49.572;1.106;2022-12-29T18:53:56;99108.22;;;8.10;75.13
74960;BME280;63518;49.572;1.106;2022-12-29T18:56:23;99096.19;;;8.11;75.65
74960;BME280;63518;49.572;1.106;2022-12-29T18:58:53;99080.00;;;7.94;75.54
74960;BME280;63518;49.572;1.106;2022-12-29T19:01:26;99093.44;;;8.00;75.51
74960;BME280;63518;49.572;1.106;2022-12-29T19:03:57;99078.91;;;8.00;76.17
74960;BME280;63518;49.572;1.106;2022-12-29T19:06:28;99095.06;;;8.06;74.43
74960;BME280;63518;49.572;1.106;2022-12-29T19:09:05;99092.56;;;8.00;75.71
74960;BME280;63518;49.572;1.106;2022-12-29T19:11:33;99083.31;;;8.06;76.13
74960;BME280;63518;49.572;1.106;2022-12-29T19:14:04;99099.44;;;8.02;75.69
74960;BME280;63518;49.572;1.106;2022-12-29T19:16:31;99080.75;;;7.84;75.70
74960;BME280;63518;49.572;1.106;2022-12-29T19:18:59;99098.06;;;8.05;75.97
74960;BME280;63518;49.572;1.106;2022-12-29T19:21:36;99094.44;;;7.79;76.12
74960;BME280;63518;49.572;1.106;2022-12-29T19:24:03;99085.75;;;7.97;75.26
74960;BME280;63518;49.572;1.106;2022-12-29T19:26:33;99100.47;;;7.91;76.77
74960;BME280;63518;49.572;1.106;2022-12-29T19:29:13;99093.91;;;7.87;76.72
74960;BME280;63518;49.572;1.106;2022-12-29T19:31:44;99080.50;;;7.81;76.43
74960;BME280;63518;49.572;1.106;2022-12-29T19:34:15;99089.75;;;7.74;77.86
74960;BME280;63518;49.572;1.106;2022-12-29T19:36:43;99083.69;;;7.67;76.43
74960;BME280;63518;49.572;1.106;2022-12-29T19:39:13;99093.34;;;7.80;76.64
74960;BME280;63518;49.572;1.106;2022-12-29T19:41:42;99109.44;;;7.76;77.44
74960;BME280;63518;49.572;1.106;2022-12-29T19:44:10;99102.34;;;7.75;77.28
74960;BME280;63518;49.572;1.106;2022-12-29T19:46:37;99073.66;;;7.78;76.50
74960;BME280;63518;49.572;1.106;2022-12-29T19:49:05;99103.47;;;7.80;75.61
74960;BME280;63518;49.572;1.106;2022-12-29T19:51:32;99102.34;;;7.75;76.93
74960;BME280;63518;49.572;1.106;2022-12-29T19:54:05;99083.13;;;7.60;76.72
74960;BME280;63518;49.572;1.106;2022-12-29T19:56:37;99099.59;;;7.70;76.74
74960;BME280;63518;49.572;1.106;2022-12-29T19:59:04;99112.13;;;7.66;76.76
74960;BME280;63518;49.572;1.106;2022-12-29T20:01:32;99123.66;;;7.73;77.49
74960;BME280;63518;49.572;1.106;2022-12-29T20:03:59;99121.16;;;7.67;77.62
74960;BME280;63518;49.572;1.106;2022-12-29T20:06:31;99123.06;;;7.61;76.53
74960;BME280;63518;49.572;1.106;2022-12-29T20:09:03;99117.59;;;7.61;77.19
74960;BME280;63518;49.572;1.106;2022-12-29T20:11:40;99120.84;;;7.58;77.15
74960;BME280;63518;49.572;1.106;2022-12-29T20:14:07;99120.38;;;7.71;77.13
74960;BME280;63518;49.572;1.106;2022-12-29T20:16:36;99101.66;;;7.48;77.75